createdAt,value
2024-05-09T00:00:40.459Z,5.90
2024-05-09T00:03:09.910Z,7.10
2024-05-09T00:05:38.499Z,6.40
2024-05-09T00:08:06.457Z,6.10
2024-05-09T00:10:37.233Z,5.70
2024-05-09T00:13:06.642Z,6.70
2024-05-09T00:15:34.361Z,7.40
2024-05-09T00:18:02.136Z,7.20
2024-05-09T00:20:37.355Z,7.80
2024-05-09T00:23:08.904Z,7.80
2024-05-09T00:25:36.455Z,7.40
2024-05-09T00:28:03.559Z,5.30
2024-05-09T00:30:35.154Z,5.20
2024-05-09T00:33:08.862Z,7.80
2024-05-09T00:35:37.221Z,5.20
2024-05-09T00:38:04.669Z,7.90
2024-05-09T00:40:41.976Z,5.20
2024-05-09T00:43:14.684Z,5.20
2024-05-09T00:45:42.907Z,5.60
2024-05-09T00:48:14.058Z,5.40
2024-05-09T00:50:44.686Z,7.40
2024-05-09T00:56:35.528Z,5.40
2024-05-09T00:59:02.871Z,7.70
2024-05-09T01:01:29.927Z,6.10
2024-05-09T01:03:57.151Z,6.30
2024-05-09T01:06:24.256Z,6.60
2024-05-09T01:08:51.523Z,8.00
2024-05-09T01:11:18.726Z,4.80
2024-05-09T01:13:46.488Z,5.40
2024-05-09T01:16:13.687Z,7.50
2024-05-09T01:18:40.988Z,5.40
2024-05-09T01:21:09.623Z,7.80
2024-05-09T01:23:36.770Z,8.50
2024-05-09T01:26:07.058Z,5.40
2024-05-09T01:28:34.856Z,7.20
2024-05-09T01:31:02.502Z,4.60
2024-05-09T01:33:30.042Z,4.10
2024-05-09T01:35:57.698Z,7.90
2024-05-09T01:38:27.883Z,5.40
2024-05-09T01:40:58.105Z,5.80
2024-05-09T01:43:25.960Z,5.50
2024-05-09T01:45:53.299Z,5.30
2024-05-09T01:48:41.251Z,5.40
2024-05-09T01:51:14.638Z,8.60
2024-05-09T01:53:42.363Z,5.40
2024-05-09T01:56:12.254Z,8.40
2024-05-09T01:58:42.761Z,5.50
2024-05-09T02:01:09.734Z,7.60
2024-05-09T02:03:38.572Z,7.20
2024-05-09T02:06:06.790Z,5.90
2024-05-09T02:08:34.364Z,5.20
2024-05-09T02:11:01.575Z,6.00
2024-05-09T02:13:28.689Z,3.20
2024-05-09T02:15:56.090Z,6.30
2024-05-09T02:18:23.169Z,7.50
2024-05-09T02:20:50.506Z,7.70
2024-05-09T02:23:18.408Z,5.30
2024-05-09T02:25:45.560Z,5.20
2024-05-09T02:28:12.498Z,7.60
2024-05-09T02:30:41.647Z,6.90
2024-05-09T02:33:11.380Z,5.20
2024-05-09T02:35:40.538Z,5.20
2024-05-09T02:38:08.830Z,6.70
2024-05-09T02:40:38.309Z,7.30
2024-05-09T02:43:09.660Z,7.20
2024-05-09T02:45:37.919Z,8.00
2024-05-09T02:48:05.981Z,6.60
2024-05-09T02:54:03.667Z,5.40
2024-05-09T02:56:30.801Z,7.00
2024-05-09T02:58:57.729Z,5.40
2024-05-09T03:01:24.705Z,7.40
2024-05-09T03:03:52.417Z,7.00
2024-05-09T03:06:19.576Z,8.30
2024-05-09T03:08:49.219Z,7.10
2024-05-09T03:14:44.650Z,5.50
2024-05-09T03:17:11.751Z,5.50
2024-05-09T03:19:38.836Z,5.50
2024-05-09T03:22:05.875Z,8.20
2024-05-09T03:24:32.955Z,8.30
2024-05-09T03:27:00.126Z,5.90
2024-05-09T03:29:27.210Z,6.20
2024-05-09T03:31:54.296Z,5.90
2024-05-09T03:34:21.339Z,6.80
2024-05-09T03:36:48.294Z,6.20
2024-05-09T03:39:15.216Z,5.80
2024-05-09T03:41:42.171Z,7.60
2024-05-09T03:44:09.080Z,5.90
2024-05-09T03:46:39.557Z,6.90
2024-05-09T03:49:07.297Z,5.90
2024-05-09T03:51:34.229Z,6.00
2024-05-09T03:54:01.139Z,6.70
2024-05-09T03:56:28.075Z,6.90
2024-05-09T03:58:54.993Z,7.50
2024-05-09T04:01:22.031Z,8.20
2024-05-09T04:03:49.202Z,7.90
2024-05-09T04:06:25.913Z,7.60
2024-05-09T04:08:53.174Z,6.20
2024-05-09T04:11:20.177Z,7.40
2024-05-09T04:13:47.146Z,6.20
2024-05-09T04:16:14.026Z,8.80
2024-05-09T04:18:41.034Z,8.40
2024-05-09T04:21:07.991Z,6.20
2024-05-09T04:23:35.064Z,6.20
2024-05-09T04:26:04.525Z,7.70
2024-05-09T04:28:31.577Z,7.10
2024-05-09T04:31:04.575Z,6.40
2024-05-09T04:33:31.606Z,6.40
2024-05-09T04:35:58.586Z,7.20
2024-05-09T04:38:25.596Z,6.60
2024-05-09T04:40:52.587Z,8.00
2024-05-09T04:43:20.557Z,8.30
2024-05-09T04:45:47.500Z,6.70
2024-05-09T04:48:14.607Z,7.00
2024-05-09T04:50:41.956Z,6.70
2024-05-09T04:53:10.576Z,6.70
2024-05-09T04:55:39.612Z,6.70
2024-05-09T04:58:10.289Z,7.30
2024-05-09T05:00:39.135Z,6.60
2024-05-09T05:03:13.862Z,9.00
2024-05-09T05:05:44.053Z,6.60
2024-05-09T05:08:12.581Z,7.10
2024-05-09T05:10:39.836Z,6.60
2024-05-09T05:13:26.996Z,6.60
2024-05-09T05:15:57.268Z,8.70
2024-05-09T05:18:25.977Z,6.70
2024-05-09T05:20:53.272Z,6.70
2024-05-09T05:23:20.654Z,8.00
2024-05-09T05:25:53.221Z,6.90
2024-05-09T05:28:20.593Z,6.80
2024-05-09T05:30:47.559Z,8.00
2024-05-09T05:33:15.695Z,7.00
2024-05-09T05:35:42.953Z,6.80
2024-05-09T05:41:37.712Z,6.90
2024-05-09T05:44:04.744Z,6.90
2024-05-09T05:46:31.668Z,7.00
2024-05-09T05:48:58.532Z,8.30
2024-05-09T05:51:25.732Z,8.00
2024-05-09T05:53:52.656Z,7.20
2024-05-09T05:56:19.585Z,8.40
2024-05-09T05:58:46.496Z,9.20
2024-05-09T06:01:13.417Z,7.40
2024-05-09T06:03:40.409Z,7.70
2024-05-09T06:06:07.429Z,7.30
2024-05-09T06:08:34.346Z,9.30
2024-05-09T06:11:01.378Z,8.50
2024-05-09T06:13:28.253Z,8.60
2024-05-09T06:15:55.087Z,8.70
2024-05-09T06:18:22.372Z,7.40
2024-05-09T06:20:49.421Z,7.40
2024-05-09T06:23:16.442Z,8.10
2024-05-09T06:25:44.179Z,7.40
2024-05-09T06:28:11.539Z,7.60
2024-05-09T06:30:42.388Z,9.70
2024-05-09T06:33:12.699Z,7.80
2024-05-09T06:35:41.903Z,7.60
2024-05-09T06:38:09.590Z,8.80
2024-05-09T06:40:39.995Z,10.10
2024-05-09T06:43:12.451Z,7.80
2024-05-09T06:45:40.208Z,8.00
2024-05-09T06:48:07.672Z,8.70
2024-05-09T06:50:37.966Z,8.00
2024-05-09T06:53:06.746Z,8.10
2024-05-09T06:58:55.870Z,8.30
2024-05-09T07:01:22.793Z,8.40
2024-05-09T07:03:49.918Z,10.00
2024-05-09T07:06:16.991Z,9.10
2024-05-09T07:08:45.488Z,8.90
2024-05-09T07:11:13.204Z,8.20
2024-05-09T07:13:40.155Z,10.20
2024-05-09T07:16:07.209Z,8.60
2024-05-09T07:18:34.359Z,8.10
2024-05-09T07:21:01.420Z,8.10
2024-05-09T07:23:38.876Z,8.20
2024-05-09T07:26:05.913Z,8.30
2024-05-09T07:28:32.882Z,8.80
2024-05-09T07:30:59.767Z,8.60
2024-05-09T07:33:29.241Z,8.40
2024-05-09T07:35:56.833Z,8.60
2024-05-09T07:38:24.301Z,8.70
2024-05-09T07:40:51.396Z,9.20
2024-05-09T07:43:18.452Z,9.10
2024-05-09T07:45:52.028Z,9.50
2024-05-09T07:53:39.477Z,10.20
2024-05-09T07:56:10.228Z,9.60
2024-05-09T07:58:38.749Z,10.80
2024-05-09T08:01:06.025Z,11.00
2024-05-09T08:03:33.416Z,10.00
2024-05-09T08:06:00.629Z,9.50
2024-05-09T08:08:27.534Z,9.70
2024-05-09T08:10:54.563Z,10.20
2024-05-09T08:13:21.831Z,10.90
2024-05-09T08:15:48.863Z,10.40
2024-05-09T08:18:17.824Z,10.60
2024-05-09T08:20:56.804Z,10.90
2024-05-09T08:23:27.409Z,11.10
2024-05-09T08:25:55.090Z,11.10
2024-05-09T08:28:22.146Z,12.70
2024-05-09T08:30:49.507Z,13.10
2024-05-09T08:33:16.795Z,12.70
2024-05-09T08:35:43.963Z,12.90
2024-05-09T08:38:11.044Z,14.10
2024-05-09T08:40:38.440Z,14.30
2024-05-09T08:43:07.217Z,14.30
2024-05-09T08:45:35.300Z,13.80
2024-05-09T08:48:06.275Z,12.70
2024-05-09T08:50:38.788Z,12.50
2024-05-09T08:53:07.281Z,11.90
2024-05-09T08:55:36.710Z,12.00
2024-05-09T08:58:24.958Z,12.00
2024-05-09T09:00:52.127Z,11.80
2024-05-09T09:03:20.641Z,12.40
2024-05-09T09:06:00.055Z,11.70
2024-05-09T09:08:26.908Z,11.80
2024-05-09T09:10:55.593Z,13.70
2024-05-09T09:16:52.017Z,14.40
2024-05-09T09:19:19.651Z,14.70
2024-05-09T09:21:46.594Z,13.40
2024-05-09T09:24:13.883Z,13.00
2024-05-09T09:26:40.753Z,13.10
2024-05-09T09:29:07.586Z,13.90
2024-05-09T09:31:34.557Z,13.50
2024-05-09T09:34:06.086Z,13.10
2024-05-09T09:36:35.627Z,14.10
2024-05-09T09:39:02.678Z,14.20
2024-05-09T09:41:30.513Z,14.90
2024-05-09T09:43:57.946Z,13.90
2024-05-09T09:46:26.501Z,13.80
2024-05-09T09:48:53.766Z,14.50
2024-05-09T09:51:21.386Z,15.40
2024-05-09T09:53:49.101Z,15.50
2024-05-09T09:56:18.168Z,15.10
2024-05-09T09:58:45.573Z,14.10
2024-05-09T10:01:12.426Z,14.10
2024-05-09T10:03:39.753Z,14.40
2024-05-09T10:06:07.754Z,15.20
2024-05-09T10:08:35.532Z,15.80
2024-05-09T10:11:04.276Z,15.40
2024-05-09T10:13:37.400Z,15.10
2024-05-09T10:16:09.184Z,15.50
2024-05-09T10:18:37.046Z,15.10
2024-05-09T10:21:14.935Z,14.90
2024-05-09T10:23:43.820Z,15.70
2024-05-09T10:26:11.138Z,16.40
2024-05-09T10:28:42.559Z,16.90
2024-05-09T10:31:13.751Z,15.30
2024-05-09T10:33:51.943Z,14.90
2024-05-09T10:36:24.815Z,14.50
2024-05-09T10:38:52.971Z,13.30
2024-05-09T10:41:20.927Z,14.40
2024-05-09T10:43:48.403Z,14.70
2024-05-09T10:46:15.951Z,14.20
2024-05-09T10:48:44.419Z,13.80
2024-05-09T10:51:11.711Z,13.60
2024-05-09T10:53:42.839Z,13.50
2024-05-09T10:56:10.209Z,13.20
2024-05-09T10:58:37.184Z,13.60
2024-05-09T11:01:06.960Z,13.60
2024-05-09T11:03:35.300Z,13.70
2024-05-09T11:06:02.856Z,13.80
2024-05-09T11:08:31.247Z,13.60
2024-05-09T11:10:59.790Z,13.70
2024-05-09T11:13:26.862Z,13.50
2024-05-09T11:15:54.274Z,13.60
2024-05-09T11:18:25.522Z,13.30
2024-05-09T11:20:54.243Z,13.30
2024-05-09T11:23:22.143Z,13.20
2024-05-09T11:25:52.606Z,13.20
2024-05-09T11:28:19.849Z,12.90
2024-05-09T11:30:47.392Z,13.10
2024-05-09T11:33:18.929Z,14.20
2024-05-09T11:35:46.853Z,13.00
2024-05-09T11:38:13.826Z,12.90
2024-05-09T11:40:41.025Z,12.80
2024-05-09T11:43:08.319Z,13.00
2024-05-09T11:45:35.374Z,13.50
2024-05-09T11:48:03.505Z,13.50
2024-05-09T11:50:35.220Z,13.10
2024-05-09T11:53:03.303Z,13.60
2024-05-09T11:55:31.008Z,12.60
2024-05-09T11:57:58.535Z,13.60
2024-05-09T12:00:33.911Z,11.90
2024-05-09T12:03:05.704Z,12.80
2024-05-09T12:05:34.146Z,11.50
2024-05-09T12:08:01.702Z,13.40
2024-05-09T12:10:34.113Z,11.50
2024-05-09T12:13:04.900Z,11.60
2024-05-09T12:15:34.122Z,11.60
2024-05-09T12:18:03.645Z,13.20
2024-05-09T12:20:36.872Z,13.00
2024-05-09T12:23:06.700Z,12.50
2024-05-09T12:25:33.848Z,13.40
2024-05-09T12:28:01.092Z,13.40
2024-05-09T12:30:35.836Z,12.60
2024-05-09T12:33:07.428Z,12.80
2024-05-09T12:35:34.689Z,11.30
2024-05-09T12:38:01.746Z,12.30
2024-05-09T12:40:35.668Z,13.40
2024-05-09T12:43:06.509Z,12.30
2024-05-09T12:45:33.766Z,11.60
2024-05-09T12:48:01.005Z,12.40
2024-05-09T12:50:33.005Z,12.00
2024-05-09T12:53:02.381Z,12.10
2024-05-09T12:55:36.425Z,12.80
2024-05-09T12:58:08.865Z,11.70
2024-05-09T13:00:36.366Z,11.50
2024-05-09T13:03:03.660Z,11.40
2024-05-09T13:05:30.975Z,11.40
2024-05-09T13:07:57.970Z,12.30
2024-05-09T13:10:31.731Z,11.60
2024-05-09T13:13:01.217Z,13.30
2024-05-09T13:15:29.705Z,12.40
2024-05-09T13:18:00.487Z,11.60
2024-05-09T13:20:33.618Z,11.90
2024-05-09T13:23:07.080Z,12.80
2024-05-09T13:25:35.269Z,12.20
2024-05-09T13:28:02.651Z,12.60
2024-05-09T13:30:38.486Z,13.30
2024-05-09T13:33:09.076Z,11.80
2024-05-09T13:35:36.449Z,11.60
2024-05-09T13:38:04.007Z,11.90
2024-05-09T13:40:34.565Z,11.30
2024-05-09T13:43:06.068Z,12.80
2024-05-09T13:45:33.719Z,11.30
2024-05-09T13:48:01.171Z,11.40
2024-05-09T13:50:34.308Z,11.30
2024-05-09T13:53:06.683Z,11.20
2024-05-09T13:55:35.400Z,10.90
2024-05-09T13:58:02.652Z,11.30
2024-05-09T14:00:42.607Z,11.30
2024-05-09T14:03:15.681Z,10.80
2024-05-09T14:05:43.508Z,11.00
2024-05-09T14:08:10.757Z,10.90
2024-05-09T14:10:44.405Z,10.80
2024-05-09T14:13:12.043Z,10.80
2024-05-09T14:15:39.103Z,11.10
2024-05-09T14:18:08.082Z,11.10
2024-05-09T14:20:36.343Z,10.60
2024-05-09T14:23:03.208Z,11.20
2024-05-09T14:28:58.742Z,10.90
2024-05-09T14:31:25.674Z,10.90
2024-05-09T14:33:52.844Z,11.20
2024-05-09T14:36:19.892Z,11.40
2024-05-09T14:38:46.876Z,13.20
2024-05-09T14:41:13.706Z,12.00
2024-05-09T14:43:41.046Z,11.70
2024-05-09T14:46:08.089Z,11.20
2024-05-09T14:48:35.195Z,11.70
2024-05-09T14:51:02.243Z,11.60
2024-05-09T14:53:29.174Z,12.00
2024-05-09T14:55:56.159Z,12.80
2024-05-09T14:58:23.861Z,12.50
2024-05-09T15:00:56.820Z,12.60
2024-05-09T15:03:23.945Z,12.20
2024-05-09T15:05:51.529Z,12.30
2024-05-09T15:08:19.755Z,12.90
2024-05-09T15:10:47.211Z,13.40
2024-05-09T15:13:16.508Z,12.00
2024-05-09T15:15:44.233Z,12.00
2024-05-09T15:18:11.447Z,12.30
2024-05-09T15:20:40.661Z,13.90
2024-05-09T15:23:07.895Z,11.70
2024-05-09T15:25:35.207Z,11.60
2024-05-09T15:28:02.429Z,11.80
2024-05-09T15:30:32.318Z,12.00
2024-05-09T15:33:03.395Z,12.00
2024-05-09T15:35:30.621Z,11.70
2024-05-09T15:37:57.642Z,12.30
2024-05-09T15:40:31.643Z,12.50
2024-05-09T15:43:06.145Z,12.10
2024-05-09T15:45:34.250Z,12.40
2024-05-09T15:48:01.994Z,11.30
2024-05-09T15:50:36.746Z,11.10
2024-05-09T15:53:08.109Z,12.50
2024-05-09T15:55:35.940Z,12.40
2024-05-09T15:58:04.047Z,11.70
2024-05-09T16:00:38.896Z,11.20
2024-05-09T16:03:13.981Z,10.50
2024-05-09T16:05:46.518Z,10.60
2024-05-09T16:08:15.476Z,10.70
2024-05-09T16:10:45.947Z,10.60
2024-05-09T16:13:14.053Z,11.30
2024-05-09T16:15:41.283Z,10.30
2024-05-09T16:18:08.563Z,12.00
2024-05-09T16:20:40.124Z,10.90
2024-05-09T16:23:09.618Z,10.60
2024-05-09T16:25:36.854Z,10.80
2024-05-09T16:28:08.359Z,9.90
2024-05-09T16:30:37.406Z,9.80
2024-05-09T16:33:05.392Z,9.80
2024-05-09T16:35:32.745Z,9.80
2024-05-09T16:38:01.696Z,10.90
2024-05-09T16:40:36.344Z,11.40
2024-05-09T16:43:07.177Z,10.00
2024-05-09T16:45:34.424Z,10.80
2024-05-09T16:48:01.622Z,12.50
2024-05-09T16:50:33.015Z,10.90
2024-05-09T16:53:02.204Z,11.60
2024-05-09T16:55:29.287Z,9.90
2024-05-09T16:57:56.860Z,10.20
2024-05-09T17:00:35.229Z,10.00
2024-05-09T17:03:08.872Z,10.70
2024-05-09T17:05:36.511Z,10.30
2024-05-09T17:08:04.433Z,9.70
2024-05-09T17:10:34.120Z,9.80
2024-05-09T17:13:03.427Z,9.90
2024-05-09T17:15:31.826Z,9.80
2024-05-09T17:17:59.184Z,9.70
2024-05-09T17:20:32.889Z,10.00
2024-05-09T17:23:03.673Z,9.40
2024-05-09T17:25:30.853Z,10.80
2024-05-09T17:28:05.647Z,11.20
2024-05-09T17:30:36.769Z,10.40
2024-05-09T17:33:06.500Z,10.00
2024-05-09T17:35:33.667Z,9.70
2024-05-09T17:38:01.891Z,9.50
2024-05-09T17:40:33.744Z,11.00
2024-05-09T17:43:04.277Z,11.10
2024-05-09T17:45:32.304Z,9.00
2024-05-09T17:48:00.122Z,11.50
2024-05-09T17:50:35.066Z,9.00
2024-05-09T17:53:04.516Z,10.40
2024-05-09T17:55:52.607Z,9.20
2024-05-09T17:58:22.255Z,10.30
2024-05-09T18:00:49.957Z,10.60
2024-05-09T18:03:16.989Z,7.80
2024-05-09T18:05:44.867Z,11.20
2024-05-09T18:08:12.819Z,10.60
2024-05-09T18:10:41.489Z,9.60
2024-05-09T18:13:09.513Z,11.40
2024-05-09T18:15:37.041Z,10.50
2024-05-09T18:18:04.700Z,9.50
2024-05-09T18:20:40.526Z,8.90
2024-05-09T18:23:11.869Z,11.10
2024-05-09T18:25:38.864Z,9.70
2024-05-09T18:28:06.374Z,10.20
2024-05-09T18:30:36.047Z,9.20
2024-05-09T18:33:06.322Z,9.50
2024-05-09T18:35:34.828Z,10.00
2024-05-09T18:38:02.047Z,10.50
2024-05-09T18:40:34.301Z,9.40
2024-05-09T18:43:08.594Z,9.10
2024-05-09T18:45:39.668Z,7.60
2024-05-09T18:48:08.084Z,9.10
2024-05-09T18:50:38.949Z,9.10
2024-05-09T18:53:09.003Z,7.60
2024-05-09T18:55:36.062Z,9.00
2024-05-09T18:58:06.644Z,8.70
2024-05-09T19:00:37.614Z,11.40
2024-05-09T19:03:12.629Z,10.30
2024-05-09T19:05:42.639Z,8.40
2024-05-09T19:08:10.525Z,8.90
2024-05-09T19:10:38.713Z,9.30
2024-05-09T19:13:10.564Z,9.20
2024-05-09T19:15:40.556Z,10.60
2024-05-09T19:18:08.476Z,11.00
2024-05-09T19:20:36.853Z,8.90
2024-05-09T19:23:06.182Z,7.20
2024-05-09T19:25:37.475Z,9.10
2024-05-09T19:28:05.484Z,8.80
2024-05-09T19:30:39.459Z,8.80
2024-05-09T19:33:10.360Z,9.80
2024-05-09T19:35:38.432Z,8.80
2024-05-09T19:38:05.627Z,11.40
2024-05-09T19:40:34.234Z,8.90
2024-05-09T19:43:03.154Z,9.20
2024-05-09T19:45:36.267Z,9.60
2024-05-09T19:48:04.237Z,8.90
2024-05-09T19:50:39.820Z,8.90
2024-05-09T19:53:11.554Z,9.70
2024-05-09T19:55:38.834Z,9.70
2024-05-09T19:58:09.142Z,9.90
2024-05-09T20:00:39.347Z,8.60
2024-05-09T20:03:09.488Z,10.60
2024-05-09T20:05:37.660Z,10.50
2024-05-09T20:08:05.860Z,9.70
2024-05-09T20:10:35.120Z,8.80
2024-05-09T20:13:05.332Z,8.80
2024-05-09T20:15:37.961Z,8.80
2024-05-09T20:18:10.206Z,7.40
2024-05-09T20:20:41.481Z,9.10
2024-05-09T20:23:11.375Z,9.50
2024-05-09T20:25:38.553Z,10.90
2024-05-09T20:28:06.666Z,9.70
2024-05-09T20:30:35.492Z,8.60
2024-05-09T20:33:05.220Z,9.50
2024-05-09T20:35:33.940Z,8.70
2024-05-09T20:38:02.053Z,10.90
2024-05-09T20:40:34.173Z,9.70
2024-05-09T20:43:04.706Z,10.40
2024-05-09T20:45:31.994Z,8.80
2024-05-09T20:47:59.697Z,10.70
2024-05-09T20:50:47.114Z,11.20
2024-05-09T20:53:15.169Z,10.10
2024-05-09T20:55:43.616Z,10.10
2024-05-09T20:58:11.458Z,10.70
2024-05-09T21:00:42.549Z,8.60
2024-05-09T21:03:12.934Z,8.80
2024-05-09T21:05:41.154Z,10.20
2024-05-09T21:08:08.426Z,10.70
2024-05-09T21:10:36.532Z,8.50
2024-05-09T21:13:04.775Z,9.30
2024-05-09T21:15:32.262Z,8.50
2024-05-09T21:17:59.545Z,9.30
2024-05-09T21:23:00.326Z,10.60
2024-05-09T21:25:27.432Z,8.40
2024-05-09T21:27:54.676Z,9.40
2024-05-09T21:30:32.366Z,10.00
2024-05-09T21:33:09.134Z,8.60
2024-05-09T21:35:37.260Z,9.20
2024-05-09T21:38:04.778Z,10.70
2024-05-09T21:40:34.998Z,8.60
2024-05-09T21:43:04.111Z,10.20
2024-05-09T21:45:31.315Z,10.40
2024-05-09T21:47:58.493Z,10.40
2024-05-09T21:50:32.406Z,8.50
2024-05-09T21:53:06.340Z,10.40
2024-05-09T21:55:33.528Z,10.60
2024-05-09T21:58:00.769Z,10.60
2024-05-09T22:00:35.651Z,9.70
2024-05-09T22:03:09.631Z,8.40
2024-05-09T22:05:38.035Z,8.40
2024-05-09T22:08:05.183Z,9.80
2024-05-09T22:10:34.985Z,8.50
2024-05-09T22:13:04.278Z,9.60
2024-05-09T22:15:37.334Z,8.70
2024-05-09T22:18:05.710Z,9.00
2024-05-09T22:20:37.815Z,8.90
2024-05-09T22:23:07.550Z,8.70
2024-05-09T22:25:35.356Z,10.70
2024-05-09T22:28:03.086Z,10.20
2024-05-09T22:30:36.342Z,8.70
2024-05-09T22:33:11.026Z,8.70
2024-05-09T22:35:39.586Z,8.70
2024-05-09T22:38:06.706Z,10.00
2024-05-09T22:40:43.295Z,10.60
2024-05-09T22:43:19.667Z,10.40
2024-05-09T22:45:47.333Z,10.10
2024-05-09T22:48:14.571Z,9.20
2024-05-09T22:50:41.621Z,10.40
2024-05-09T22:53:08.573Z,10.90
2024-05-09T22:55:35.463Z,10.50
2024-05-09T22:58:02.492Z,10.30
2024-05-09T23:00:32.106Z,10.20
2024-05-09T23:03:00.736Z,10.00
2024-05-09T23:05:28.182Z,8.90
2024-05-09T23:07:55.211Z,10.10
2024-05-09T23:10:30.803Z,10.40
2024-05-09T23:16:31.261Z,9.00
2024-05-09T23:18:58.337Z,9.00
2024-05-09T23:21:25.413Z,9.00
2024-05-09T23:23:52.242Z,9.40
2024-05-09T23:26:19.161Z,10.30
